Northway, Alaska
Current Conditions -  °F | °C
As of 2:18 PM on Friday 31 Oct 2014 (Local Time) from PAOR Reporting Station
Broken Clouds Broken Clouds  
Wind Chill:   Ceiling: 6500
Heat Index: 14°   Visibility: 10mi
Dew Point:   Wind: 5mph
Humidity: 80%   Direction: 110°ESE
Pressure: 29.36"   Gusts: NA
Location:  62.95°N, 141.93°W
Report Text: PAOR 312218Z 11004KT 10SM FEW020 SCT027 BKN065 BKN160 M10/M13 A2936 RMK AO2 T11001128
Loading
Personal Weather Stations






























Interactive Weather Map New forecast layout! Learn more

10-Day Weather Forecast

Advertisements
Track Severe Weather on mobile